createdAt,value
2023-02-22T00:01:28.430Z,-10946.37
2023-02-22T00:04:35.681Z,-10965.84
2023-02-22T00:07:44.791Z,-10977.63
2023-02-22T00:10:52.658Z,-10985.31
2023-02-22T00:14:00.231Z,-10973.81
2023-02-22T00:17:06.538Z,-10971.31
2023-02-22T00:20:17.337Z,-10967.66
2023-02-22T00:23:25.518Z,-10980.69
2023-02-22T00:26:35.147Z,-10947.22
2023-02-22T00:29:47.520Z,-10955.19
2023-02-22T00:32:56.043Z,-10961.50
2023-02-22T00:36:02.860Z,-10954.78
2023-02-22T00:39:09.641Z,-10951.69
2023-02-22T00:42:16.231Z,-10954.91
2023-02-22T00:45:27.290Z,-10958.41
2023-02-22T00:48:33.482Z,-10950.28
2023-02-22T00:51:40.358Z,-10955.34
2023-02-22T00:54:46.850Z,-10942.16
2023-02-22T00:57:53.308Z,-10954.22
2023-02-22T01:01:01.357Z,-10950.84
2023-02-22T01:04:07.821Z,-10971.88
2023-02-22T01:07:14.477Z,-10960.38
2023-02-22T01:10:22.976Z,-10969.34
2023-02-22T01:13:29.449Z,-10973.00
2023-02-22T01:16:37.386Z,-10962.06
2023-02-22T01:19:43.957Z,-10953.22
2023-02-22T01:22:53.353Z,-10953.09
2023-02-22T01:25:59.981Z,-10950.28
2023-02-22T01:29:06.285Z,-10941.59
2023-02-22T01:32:14.042Z,-10946.50
2023-02-22T01:35:24.516Z,-10936.56
2023-02-22T01:38:31.089Z,-10931.94
2023-02-22T01:41:37.384Z,-10935.84
2023-02-22T01:44:43.788Z,-10958.13
2023-02-22T01:47:51.361Z,-10943.44
2023-02-22T01:51:01.020Z,-10950.56
2023-02-22T01:54:13.824Z,-10922.28
2023-02-22T01:57:24.209Z,-10915.28
2023-02-22T02:00:31.116Z,-10922.97
2023-02-22T02:03:41.034Z,-10917.25
2023-02-22T02:06:48.476Z,-10926.47
2023-02-22T02:09:58.841Z,-10938.38
2023-02-22T02:13:05.230Z,-10932.38
2023-02-22T02:16:11.930Z,-10936.00
2023-02-22T02:19:29.581Z,-10923.69
2023-02-22T02:22:48.390Z,-10936.13
2023-02-22T02:26:27.641Z,-10953.66
2023-02-22T02:30:13.766Z,-10946.09
2023-02-22T02:33:24.928Z,-10950.28
2023-02-22T02:36:36.173Z,-10956.03
2023-02-22T02:39:51.259Z,-10967.38
2023-02-22T02:43:04.089Z,-10960.66
2023-02-22T02:46:15.952Z,-10964.44
2023-02-22T02:49:29.805Z,-10963.19
2023-02-22T02:52:36.861Z,-10959.53
2023-02-22T02:55:43.134Z,-10968.50
2023-02-22T02:58:50.941Z,-10959.41
2023-02-22T03:02:23.948Z,-10951.13
2023-02-22T03:05:59.701Z,-10945.38
2023-02-22T03:09:13.892Z,-10921.72
2023-02-22T03:12:33.183Z,-10916.97
2023-02-22T03:15:51.490Z,-10926.34
2023-02-22T03:19:04.918Z,-10949.88
2023-02-22T03:22:17.541Z,-10950.28
2023-02-22T03:25:31.616Z,-10948.31
2023-02-22T03:28:42.390Z,-10947.78
2023-02-22T03:31:54.587Z,-10948.06
2023-02-22T03:35:04.330Z,-10946.50
2023-02-22T03:38:14.836Z,-10910.78
2023-02-22T03:41:25.334Z,-10909.13
2023-02-22T03:44:38.121Z,-10920.16
2023-02-22T03:47:50.436Z,-10905.19
2023-02-22T03:50:58.604Z,-10904.06
2023-02-22T03:54:07.206Z,-10904.22
2023-02-22T03:57:17.937Z,-10902.53
2023-02-22T04:00:26.192Z,-10905.91
2023-02-22T04:03:32.630Z,-10907.00
2023-02-22T04:06:38.728Z,-10934.31
2023-02-22T04:09:46.899Z,-10932.63
2023-02-22T04:12:53.173Z,-10948.06
2023-02-22T04:15:59.633Z,-10948.31
2023-02-22T04:19:06.427Z,-10931.25
2023-02-22T04:22:13.051Z,-10927.03
2023-02-22T04:25:21.382Z,-10940.75
2023-02-22T04:28:27.765Z,-10939.63
2023-02-22T04:31:34.208Z,-10936.28
2023-02-22T04:34:40.512Z,-10921.16
2023-02-22T04:37:47.044Z,-10936.56
2023-02-22T04:40:55.771Z,-10941.03
2023-02-22T04:44:01.884Z,-10940.91
2023-02-22T04:47:08.514Z,-10940.06
2023-02-22T04:50:15.725Z,-10913.59
2023-02-22T04:53:22.350Z,-10908.28
2023-02-22T04:56:29.929Z,-10911.91
2023-02-22T04:59:36.586Z,-10914.72
2023-02-22T05:02:43.197Z,-10912.91
2023-02-22T05:05:49.299Z,-10911.34
2023-02-22T05:08:55.707Z,-10916.41
2023-02-22T05:12:03.449Z,-10919.34
2023-02-22T05:15:11.011Z,-10927.03
2023-02-22T05:18:17.687Z,-10936.56
2023-02-22T05:21:24.182Z,-10919.19
2023-02-22T05:24:30.481Z,-10938.09
2023-02-22T05:27:38.437Z,-10926.75
2023-02-22T05:30:45.521Z,-10944.25
2023-02-22T05:33:51.812Z,-10948.59
2023-02-22T05:36:58.079Z,-10925.78
2023-02-22T05:40:04.762Z,-10916.13
2023-02-22T05:43:12.272Z,-10942.44
2023-02-22T05:46:18.619Z,-10962.75
2023-02-22T05:49:24.787Z,-10966.53
2023-02-22T05:52:31.328Z,-10968.50
2023-02-22T05:55:37.701Z,-10952.66
2023-02-22T05:58:45.402Z,-10943.56
2023-02-22T06:01:51.847Z,-10956.03
2023-02-22T06:04:58.354Z,-10952.66
2023-02-22T06:08:06.379Z,-10951.69
2023-02-22T06:11:12.869Z,-10970.19
2023-02-22T06:14:21.039Z,-10968.22
2023-02-22T06:17:27.594Z,-10958.69
2023-02-22T06:20:35.676Z,-10944.13
2023-02-22T06:23:41.944Z,-10979.44
2023-02-22T06:26:48.327Z,-10969.63
2023-02-22T06:29:56.000Z,-10975.22
2023-02-22T06:33:02.721Z,-10981.41
2023-02-22T06:36:10.753Z,-10999.63
2023-02-22T06:39:19.095Z,-11014.47
2023-02-22T06:42:25.742Z,-11029.22
2023-02-22T06:45:33.346Z,-11012.94
2023-02-22T06:48:40.516Z,-11011.41
2023-02-22T06:51:48.039Z,-11023.31
2023-02-22T06:54:54.743Z,-11026.41
2023-02-22T06:58:01.529Z,-11037.63
2023-02-22T07:01:09.150Z,-11047.59
2023-02-22T07:04:16.058Z,-11051.50
2023-02-22T07:07:25.330Z,-11059.38
2023-02-22T07:10:33.558Z,-11058.97
2023-02-22T07:13:39.795Z,-11071.31
2023-02-22T07:16:47.579Z,-11082.13
2023-02-22T07:19:54.300Z,-11087.44
2023-02-22T07:23:01.473Z,-11084.34
2023-02-22T07:26:07.830Z,-11088.00
2023-02-22T07:29:14.254Z,-11092.38
2023-02-22T07:32:22.139Z,-11118.34
2023-02-22T07:35:30.918Z,-11128.19
2023-02-22T07:38:37.213Z,-11127.75
2023-02-22T07:41:43.337Z,-11119.19
2023-02-22T07:44:49.417Z,-11121.72
2023-02-22T07:47:57.651Z,-11131.25
2023-02-22T07:51:03.809Z,-11139.00
2023-02-22T07:54:09.766Z,-11133.94
2023-02-22T07:57:17.013Z,-11142.22
2023-02-22T08:00:25.918Z,-11154.16
2023-02-22T08:03:36.832Z,-11155.16
2023-02-22T08:06:46.404Z,-11156.56
2023-02-22T08:09:52.860Z,-11171.59
2023-02-22T08:12:59.616Z,-11176.50
2023-02-22T08:16:06.469Z,-11189.88
2023-02-22T08:19:14.295Z,-11165.84
2023-02-22T08:22:22.041Z,-11178.47
2023-02-22T08:25:30.774Z,-11179.03
2023-02-22T08:28:37.550Z,-11193.09
2023-02-22T08:31:43.886Z,-11203.22
2023-02-22T08:34:51.669Z,-11201.81
2023-02-22T08:37:59.987Z,-11191.13
2023-02-22T08:41:07.049Z,-11201.53
2023-02-22T08:44:13.487Z,-11208.84
2023-02-22T08:47:19.913Z,-11210.81
2023-02-22T08:50:29.386Z,-11212.22
2023-02-22T08:53:35.798Z,-11236.56
2023-02-22T08:56:42.264Z,-11235.31
2023-02-22T08:59:48.510Z,-11235.31
2023-02-22T09:02:54.756Z,-11229.66
2023-02-22T09:06:02.412Z,-11252.03
2023-02-22T09:09:08.385Z,-11269.22
2023-02-22T09:12:14.862Z,-11256.41
2023-02-22T09:15:21.103Z,-11264.72
2023-02-22T09:18:39.134Z,-11267.38
2023-02-22T09:21:55.643Z,-11275.13
2023-02-22T09:25:11.231Z,-11290.47
2023-02-22T09:28:21.436Z,-11289.34
2023-02-22T09:31:28.070Z,-11306.22
2023-02-22T09:34:35.549Z,-11302.56
2023-02-22T09:37:45.703Z,-11320.59
2023-02-22T09:40:55.361Z,-11331.00
2023-02-22T09:44:17.833Z,-11328.75
2023-02-22T09:47:32.663Z,-11339.75
2023-02-22T09:50:43.921Z,-11347.50
2023-02-22T09:53:53.245Z,-11342.84
2023-02-22T09:57:03.676Z,-11342.28
2023-02-22T10:00:18.186Z,-11354.25
2023-02-22T10:03:29.936Z,-11369.47
2023-02-22T10:06:38.134Z,-11357.34
2023-02-22T10:09:48.729Z,-11390.19
2023-02-22T10:13:01.482Z,-11385.38
2023-02-22T10:16:17.010Z,-11383.13
2023-02-22T10:19:30.916Z,-11388.63
2023-02-22T10:22:46.603Z,-11387.06
2023-02-22T10:26:01.543Z,-11381.88
2023-02-22T10:29:16.563Z,-11401.72
2023-02-22T10:32:45.668Z,-11405.53
2023-02-22T10:35:53.911Z,-11399.75
2023-02-22T10:39:01.546Z,-11404.84
2023-02-22T10:42:10.293Z,-11403.56
2023-02-22T10:45:23.748Z,-11413.72
2023-02-22T10:48:32.990Z,-11425.84
2023-02-22T10:51:39.842Z,-11430.50
2023-02-22T10:54:52.003Z,-11438.53
2023-02-22T10:58:06.302Z,-11421.88
2023-02-22T11:01:26.374Z,-11427.53
2023-02-22T11:04:48.534Z,-11441.19
2023-02-22T11:08:16.068Z,-11430.50
2023-02-22T11:11:25.511Z,-11420.63
2023-02-22T11:14:33.214Z,-11437.41
2023-02-22T11:17:41.234Z,-11428.38
2023-02-22T11:20:47.580Z,-11440.63
2023-02-22T11:24:03.651Z,-11427.53
2023-02-22T11:27:10.378Z,-11437.81
2023-02-22T11:30:29.200Z,-11421.19
2023-02-22T11:33:36.334Z,-11456.72
2023-02-22T11:36:44.435Z,-11438.38
2023-02-22T11:40:07.509Z,-11461.09
2023-02-22T11:43:18.274Z,-11455.31
2023-02-22T11:46:29.280Z,-11458.25
2023-02-22T11:49:38.401Z,-11464.19
2023-02-22T11:52:51.968Z,-11449.38
2023-02-22T11:56:15.314Z,-11448.81
2023-02-22T11:59:32.567Z,-11465.03
2023-02-22T12:02:57.290Z,-11438.94
2023-02-22T12:06:20.330Z,-11437.41
2023-02-22T12:09:36.974Z,-11451.91
2023-02-22T12:12:55.696Z,-11440.22
2023-02-22T12:16:14.431Z,-11455.03
2023-02-22T12:19:33.232Z,-11440.63
2023-02-22T12:22:48.712Z,-11462.50
2023-02-22T12:26:01.590Z,-11470.25
2023-02-22T12:29:14.734Z,-11475.19
2023-02-22T12:32:30.040Z,-11487.03
2023-02-22T12:35:40.479Z,-11471.09
2023-02-22T12:38:53.254Z,-11468.13
2023-02-22T12:42:03.695Z,-11453.63
2023-02-22T12:45:17.006Z,-11455.59
2023-02-22T12:48:39.944Z,-11462.34
2023-02-22T12:51:53.820Z,-11457.69
2023-02-22T12:55:06.093Z,-11460.09
2023-02-22T12:58:23.265Z,-11456.44
2023-02-22T13:01:36.259Z,-11462.91
2023-02-22T13:04:42.753Z,-11460.66
2023-02-22T13:08:03.808Z,-11464.88
2023-02-22T13:11:21.410Z,-11474.06
2023-02-22T13:14:54.885Z,-11463.47
2023-02-22T13:18:12.043Z,-11461.66
2023-02-22T13:21:24.429Z,-11463.19
2023-02-22T13:24:40.756Z,-11461.78
2023-02-22T13:27:55.067Z,-11466.16
2023-02-22T13:31:21.345Z,-11460.94
2023-02-22T13:34:52.324Z,-11457.84
2023-02-22T13:38:25.358Z,-11459.97
2023-02-22T13:41:52.402Z,-11457.13
2023-02-22T13:45:35.257Z,-11472.78
2023-02-22T13:49:18.620Z,-11459.41
2023-02-22T13:52:27.786Z,-11457.00
2023-02-22T13:55:37.613Z,-11458.97
2023-02-22T13:59:04.470Z,-11462.63
2023-02-22T14:02:35.613Z,-11463.06
2023-02-22T14:05:51.177Z,-11480.97
2023-02-22T14:08:58.900Z,-11453.03
2023-02-22T14:12:05.926Z,-11465.72
2023-02-22T14:15:29.739Z,-11458.69
2023-02-22T14:18:39.135Z,-11463.06
2023-02-22T14:22:02.410Z,-11433.72
2023-02-22T14:25:32.642Z,-11429.09
2023-02-22T14:28:51.877Z,-11430.06
2023-02-22T14:32:05.201Z,-11441.47
2023-02-22T14:35:26.581Z,-11449.09
2023-02-22T14:38:35.372Z,-11455.03
2023-02-22T14:41:47.739Z,-11449.81
2023-02-22T14:45:02.720Z,-11453.19
2023-02-22T14:48:20.479Z,-11445.44
2023-02-22T14:51:29.793Z,-11443.47
2023-02-22T14:54:46.434Z,-11419.22
2023-02-22T14:58:01.856Z,-11423.72
2023-02-22T15:01:28.956Z,-11396.53
2023-02-22T15:04:39.130Z,-11384.81
2023-02-22T15:07:54.362Z,-11385.81
2023-02-22T15:11:02.399Z,-11370.16
2023-02-22T15:14:25.698Z,-11369.03
2023-02-22T15:17:32.149Z,-11363.81
2023-02-22T15:20:39.686Z,-11356.66
2023-02-22T15:23:49.086Z,-11350.16
2023-02-22T15:27:02.133Z,-11345.66
2023-02-22T15:30:18.387Z,-11344.38
2023-02-22T15:33:38.094Z,-11338.75
2023-02-22T15:36:47.742Z,-11338.91
2023-02-22T15:39:59.665Z,-11332.13
2023-02-22T15:43:09.542Z,-11324.25
2023-02-22T15:46:15.766Z,-11324.25
2023-02-22T15:49:24.716Z,-11322.00
2023-02-22T15:52:32.689Z,-11316.94
2023-02-22T15:55:43.842Z,-11314.97
2023-02-22T15:58:50.124Z,-11312.41
2023-02-22T16:01:57.080Z,-11307.06
2023-02-22T16:05:08.582Z,-11297.63
2023-02-22T16:08:19.225Z,-11290.03
2023-02-22T16:11:31.156Z,-11287.34
2023-02-22T16:14:45.067Z,-11275.97
2023-02-22T16:18:01.958Z,-11278.63
2023-02-22T16:21:13.132Z,-11266.81
2023-02-22T16:24:29.322Z,-11261.59
2023-02-22T16:27:47.496Z,-11256.69
2023-02-22T16:30:58.471Z,-11254.16
2023-02-22T16:34:06.936Z,-11264.44
2023-02-22T16:37:22.996Z,-11253.31
2023-02-22T16:40:34.686Z,-11253.16
2023-02-22T16:43:41.309Z,-11243.88
2023-02-22T16:46:47.940Z,-11241.47
2023-02-22T16:49:57.253Z,-11225.03
2023-02-22T16:53:04.025Z,-11229.53
2023-02-22T16:56:16.364Z,-11219.13
2023-02-22T16:59:23.160Z,-11215.31
2023-02-22T17:02:29.482Z,-11212.22
2023-02-22T17:05:37.767Z,-11207.16
2023-02-22T17:08:44.348Z,-11197.75
2023-02-22T17:11:53.829Z,-11204.34
2023-02-22T17:15:00.207Z,-11194.66
2023-02-22T17:18:17.559Z,-11195.34
2023-02-22T17:21:23.708Z,-11192.13
2023-02-22T17:24:29.899Z,-11188.47
2023-02-22T17:27:37.652Z,-11191.69
2023-02-22T17:30:45.528Z,-11190.56
2023-02-22T17:33:52.612Z,-11188.59
2023-02-22T17:36:59.222Z,-11179.88
2023-02-22T17:40:05.836Z,-11179.59
2023-02-22T17:43:13.799Z,-11168.37
2023-02-22T17:46:20.654Z,-11167.09
2023-02-22T17:49:26.745Z,-11171.19
2023-02-22T17:52:32.874Z,-11168.94
2023-02-22T17:55:40.776Z,-11164.72
2023-02-22T17:58:50.407Z,-11184.94
2023-02-22T18:01:57.052Z,-11184.66
2023-02-22T18:05:03.116Z,-11138.84
2023-02-22T18:08:09.280Z,-11150.38
2023-02-22T18:11:15.855Z,-11164.28
2023-02-22T18:14:24.152Z,-11159.09
2023-02-22T18:17:30.814Z,-11150.50
2023-02-22T18:20:39.340Z,-11151.78
2023-02-22T18:23:45.949Z,-11145.19
2023-02-22T18:26:52.596Z,-11134.06
2023-02-22T18:30:00.443Z,-11133.09
2023-02-22T18:33:07.242Z,-11122.84
2023-02-22T18:36:14.342Z,-11128.03
2023-02-22T18:39:20.786Z,-11131.81
2023-02-22T18:42:28.470Z,-11134.22
2023-02-22T18:45:37.311Z,-11128.47
2023-02-22T18:48:44.022Z,-11124.53
2023-02-22T18:51:50.145Z,-11129.59
2023-02-22T18:54:56.569Z,-11127.63
2023-02-22T18:58:04.834Z,-11125.09
2023-02-22T19:01:17.868Z,-11105.16
2023-02-22T19:04:25.225Z,-11093.91
2023-02-22T19:07:32.889Z,-11096.84
2023-02-22T19:10:39.614Z,-11090.81
2023-02-22T19:13:46.803Z,-11101.78
2023-02-22T19:16:57.044Z,-11102.47
2023-02-22T19:20:05.565Z,-11096.84
2023-02-22T19:23:12.568Z,-11097.84
2023-02-22T19:26:20.643Z,-11088.84
2023-02-22T19:29:31.301Z,-11089.13
2023-02-22T19:32:40.787Z,-11080.44
2023-02-22T19:35:48.362Z,-11073.97
2023-02-22T19:38:54.654Z,-11083.22
2023-02-22T19:42:01.661Z,-11091.94
2023-02-22T19:45:08.500Z,-11087.31
2023-02-22T19:48:16.481Z,-11083.78
2023-02-22T19:51:25.733Z,-11085.91
2023-02-22T19:54:32.268Z,-11073.12
2023-02-22T19:57:38.979Z,-11072.84
2023-02-22T20:00:45.221Z,-11068.91
2023-02-22T20:03:54.519Z,-11058.81
2023-02-22T20:07:02.198Z,-11051.50
2023-02-22T20:10:08.974Z,-11053.75
2023-02-22T20:13:17.213Z,-11049.97
2023-02-22T20:16:24.014Z,-11046.75
2023-02-22T20:19:31.745Z,-11044.78
2023-02-22T20:22:38.296Z,-11048.56
2023-02-22T20:25:52.313Z,-11050.81
2023-02-22T20:29:04.052Z,-11052.06
2023-02-22T20:32:15.505Z,-11053.19
2023-02-22T20:35:23.285Z,-11057.69
2023-02-22T20:38:29.546Z,-11047.03
2023-02-22T20:41:37.136Z,-11060.78
2023-02-22T20:44:45.220Z,-11058.81
2023-02-22T20:47:52.134Z,-11051.50
2023-02-22T20:51:06.681Z,-11051.25
2023-02-22T20:54:14.242Z,-11045.06
2023-02-22T20:57:20.711Z,-11041.00
2023-02-22T21:00:27.061Z,-11031.59
2023-02-22T21:03:34.166Z,-11026.00
2023-02-22T21:06:42.317Z,-11039.72
2023-02-22T21:09:48.905Z,-11038.88
2023-02-22T21:12:56.999Z,-11033.13
2023-02-22T21:16:05.294Z,-11041.13
2023-02-22T21:19:12.159Z,-11025.16
2023-02-22T21:22:20.288Z,-11032.72
2023-02-22T21:25:29.719Z,-11040.84
2023-02-22T21:28:53.140Z,-11024.44
2023-02-22T21:32:00.067Z,-11011.97
2023-02-22T21:35:07.360Z,-11019.13
2023-02-22T21:38:15.387Z,-11017.16
2023-02-22T21:41:23.717Z,-11016.31
2023-02-22T21:44:30.400Z,-11012.53
2023-02-22T21:47:39.086Z,-11004.81
2023-02-22T21:50:45.644Z,-11004.09
2023-02-22T21:53:55.188Z,-10999.19
2023-02-22T21:57:01.562Z,-11009.72
2023-02-22T22:00:17.425Z,-11017.16
2023-02-22T22:03:24.610Z,-11012.25
2023-02-22T22:06:34.459Z,-11012.53
2023-02-22T22:09:43.305Z,-11022.34
2023-02-22T22:12:50.629Z,-11011.97
2023-02-22T22:15:57.984Z,-11006.34
2023-02-22T22:19:04.508Z,-10994.84
2023-02-22T22:22:10.905Z,-10995.13
2023-02-22T22:25:19.176Z,-11010.00
2023-02-22T22:28:27.097Z,-11007.06
2023-02-22T22:31:33.623Z,-11015.47
2023-02-22T22:34:40.532Z,-10994.00
2023-02-22T22:37:51.298Z,-10980.13
2023-02-22T22:41:02.003Z,-10976.63
2023-02-22T22:44:09.982Z,-10973.56
2023-02-22T22:47:16.038Z,-10976.50
2023-02-22T22:50:26.582Z,-10988.41
2023-02-22T22:53:33.572Z,-10995.00
2023-02-22T22:56:41.535Z,-11001.03
2023-02-22T22:59:50.026Z,-10999.34
2023-02-22T23:02:57.416Z,-10984.63
2023-02-22T23:06:04.949Z,-10965.84
2023-02-22T23:09:18.838Z,-10964.03
2023-02-22T23:12:31.635Z,-10974.09
2023-02-22T23:15:38.019Z,-10979.72
2023-02-22T23:18:44.596Z,-10977.75
2023-02-22T23:21:52.286Z,-10990.50
2023-02-22T23:25:00.485Z,-10986.31
2023-02-22T23:28:14.786Z,-11004.81
2023-02-22T23:31:21.903Z,-10997.25
2023-02-22T23:34:29.142Z,-10999.06
2023-02-22T23:37:35.639Z,-10994.00
2023-02-22T23:40:42.115Z,-10978.59
2023-02-22T23:43:50.809Z,-10983.34
2023-02-22T23:46:57.049Z,-10974.81
2023-02-22T23:50:06.712Z,-10964.31
2023-02-22T23:53:15.352Z,-10956.16
2023-02-22T23:56:22.195Z,-10944.81
2023-02-22T23:59:31.227Z,-10947.78
